sensor_id;sensor_type;location;lat;lon;timestamp;P1;durP1;ratioP1;P2;durP2;ratioP2
55037;SDS011;40937;53.594;10.034;2023-04-26T00:00:49;17.67;;;2.55;;
55037;SDS011;40937;53.594;10.034;2023-04-26T00:03:18;12.82;;;2.50;;
55037;SDS011;40937;53.594;10.034;2023-04-26T00:05:44;9.98;;;2.15;;
55037;SDS011;40937;53.594;10.034;2023-04-26T00:08:11;15.77;;;2.47;;
55037;SDS011;40937;53.594;10.034;2023-04-26T00:10:38;9.95;;;2.72;;
55037;SDS011;40937;53.594;10.034;2023-04-26T00:13:07;11.57;;;2.08;;
55037;SDS011;40937;53.594;10.034;2023-04-26T00:15:34;8.65;;;1.65;;
55037;SDS011;40937;53.594;10.034;2023-04-26T00:18:01;11.98;;;2.42;;
55037;SDS011;40937;53.594;10.034;2023-04-26T00:20:28;6.53;;;2.05;;
55037;SDS011;40937;53.594;10.034;2023-04-26T00:22:55;8.07;;;1.98;;
55037;SDS011;40937;53.594;10.034;2023-04-26T00:25:22;7.72;;;1.90;;
55037;SDS011;40937;53.594;10.034;2023-04-26T00:27:49;9.48;;;2.40;;
55037;SDS011;40937;53.594;10.034;2023-04-26T00:30:19;8.05;;;2.50;;
55037;SDS011;40937;53.594;10.034;2023-04-26T00:32:45;5.90;;;2.15;;
55037;SDS011;40937;53.594;10.034;2023-04-26T00:35:12;6.88;;;2.00;;
55037;SDS011;40937;53.594;10.034;2023-04-26T00:37:39;10.73;;;2.42;;
55037;SDS011;40937;53.594;10.034;2023-04-26T00:40:07;5.50;;;1.58;;
55037;SDS011;40937;53.594;10.034;2023-04-26T00:42:34;4.85;;;1.35;;
55037;SDS011;40937;53.594;10.034;2023-04-26T00:45:02;8.80;;;1.83;;
55037;SDS011;40937;53.594;10.034;2023-04-26T00:47:30;5.13;;;1.38;;
55037;SDS011;40937;53.594;10.034;2023-04-26T00:49:57;7.05;;;2.58;;
55037;SDS011;40937;53.594;10.034;2023-04-26T00:52:25;7.65;;;2.33;;
55037;SDS011;40937;53.594;10.034;2023-04-26T00:54:52;11.48;;;1.70;;
55037;SDS011;40937;53.594;10.034;2023-04-26T00:57:19;9.50;;;2.78;;
55037;SDS011;40937;53.594;10.034;2023-04-26T00:59:46;11.80;;;2.00;;
55037;SDS011;40937;53.594;10.034;2023-04-26T01:02:15;10.73;;;2.47;;
55037;SDS011;40937;53.594;10.034;2023-04-26T01:04:44;6.93;;;1.88;;
55037;SDS011;40937;53.594;10.034;2023-04-26T01:07:12;8.18;;;1.63;;
55037;SDS011;40937;53.594;10.034;2023-04-26T01:09:39;7.53;;;1.95;;
55037;SDS011;40937;53.594;10.034;2023-04-26T01:12:07;8.05;;;1.73;;
55037;SDS011;40937;53.594;10.034;2023-04-26T01:14:36;10.93;;;2.20;;
55037;SDS011;40937;53.594;10.034;2023-04-26T01:17:03;9.00;;;2.50;;
55037;SDS011;40937;53.594;10.034;2023-04-26T01:19:31;6.53;;;1.75;;
55037;SDS011;40937;53.594;10.034;2023-04-26T01:21:59;8.32;;;2.30;;
55037;SDS011;40937;53.594;10.034;2023-04-26T01:24:27;4.35;;;1.90;;
55037;SDS011;40937;53.594;10.034;2023-04-26T01:26:55;5.95;;;2.03;;
55037;SDS011;40937;53.594;10.034;2023-04-26T01:29:22;9.30;;;2.53;;
55037;SDS011;40937;53.594;10.034;2023-04-26T01:31:50;16.25;;;2.80;;
55037;SDS011;40937;53.594;10.034;2023-04-26T01:34:16;9.13;;;2.40;;
55037;SDS011;40937;53.594;10.034;2023-04-26T01:36:45;8.73;;;2.72;;
55037;SDS011;40937;53.594;10.034;2023-04-26T01:39:12;9.57;;;2.53;;
55037;SDS011;40937;53.594;10.034;2023-04-26T01:41:40;10.27;;;3.13;;
55037;SDS011;40937;53.594;10.034;2023-04-26T01:44:07;12.38;;;3.28;;
55037;SDS011;40937;53.594;10.034;2023-04-26T01:46:34;9.98;;;2.53;;
55037;SDS011;40937;53.594;10.034;2023-04-26T01:49:00;16.77;;;3.65;;
55037;SDS011;40937;53.594;10.034;2023-04-26T01:51:28;8.95;;;3.13;;
55037;SDS011;40937;53.594;10.034;2023-04-26T01:53:55;13.98;;;3.17;;
55037;SDS011;40937;53.594;10.034;2023-04-26T01:56:24;11.52;;;3.00;;
55037;SDS011;40937;53.594;10.034;2023-04-26T01:58:53;12.02;;;3.60;;
55037;SDS011;40937;53.594;10.034;2023-04-26T02:01:22;13.13;;;3.38;;
55037;SDS011;40937;53.594;10.034;2023-04-26T02:03:49;14.82;;;3.17;;
55037;SDS011;40937;53.594;10.034;2023-04-26T02:06:18;10.05;;;3.17;;
55037;SDS011;40937;53.594;10.034;2023-04-26T02:08:45;6.70;;;2.45;;
55037;SDS011;40937;53.594;10.034;2023-04-26T02:11:12;11.65;;;2.80;;
55037;SDS011;40937;53.594;10.034;2023-04-26T02:13:39;7.15;;;2.88;;
55037;SDS011;40937;53.594;10.034;2023-04-26T02:16:07;5.70;;;2.85;;
55037;SDS011;40937;53.594;10.034;2023-04-26T02:18:34;9.40;;;3.05;;
55037;SDS011;40937;53.594;10.034;2023-04-26T02:21:01;16.63;;;3.35;;
55037;SDS011;40937;53.594;10.034;2023-04-26T02:23:30;13.20;;;3.85;;
55037;SDS011;40937;53.594;10.034;2023-04-26T02:25:57;7.32;;;2.95;;
55037;SDS011;40937;53.594;10.034;2023-04-26T02:28:24;8.98;;;3.08;;
55037;SDS011;40937;53.594;10.034;2023-04-26T02:30:54;7.75;;;3.10;;
55037;SDS011;40937;53.594;10.034;2023-04-26T02:33:23;8.27;;;3.45;;
55037;SDS011;40937;53.594;10.034;2023-04-26T02:35:50;10.43;;;3.42;;
55037;SDS011;40937;53.594;10.034;2023-04-26T02:38:18;10.57;;;3.08;;
55037;SDS011;40937;53.594;10.034;2023-04-26T02:40:45;12.52;;;3.42;;
55037;SDS011;40937;53.594;10.034;2023-04-26T02:43:13;9.20;;;3.65;;
55037;SDS011;40937;53.594;10.034;2023-04-26T02:45:40;6.53;;;2.90;;
55037;SDS011;40937;53.594;10.034;2023-04-26T02:48:09;7.60;;;2.80;;
55037;SDS011;40937;53.594;10.034;2023-04-26T02:50:38;6.80;;;2.78;;
55037;SDS011;40937;53.594;10.034;2023-04-26T02:53:06;6.57;;;2.47;;
55037;SDS011;40937;53.594;10.034;2023-04-26T02:55:33;6.13;;;2.55;;
55037;SDS011;40937;53.594;10.034;2023-04-26T02:58:00;9.80;;;2.40;;
55037;SDS011;40937;53.594;10.034;2023-04-26T03:00:27;6.03;;;2.83;;
55037;SDS011;40937;53.594;10.034;2023-04-26T03:02:58;6.72;;;2.45;;
55037;SDS011;40937;53.594;10.034;2023-04-26T04:32:49;10.35;;;3.22;;
55037;SDS011;40937;53.594;10.034;2023-04-26T06:25:49;12.43;;;4.40;;
55037;SDS011;40937;53.594;10.034;2023-04-26T06:28:16;14.23;;;3.95;;
55037;SDS011;40937;53.594;10.034;2023-04-26T06:30:45;11.98;;;3.85;;
55037;SDS011;40937;53.594;10.034;2023-04-26T06:33:16;15.70;;;4.07;;
55037;SDS011;40937;53.594;10.034;2023-04-26T07:05:24;9.20;;;3.15;;
55037;SDS011;40937;53.594;10.034;2023-04-26T07:08:04;10.07;;;3.83;;
55037;SDS011;40937;53.594;10.034;2023-04-26T07:10:31;9.23;;;3.70;;
55037;SDS011;40937;53.594;10.034;2023-04-26T07:13:00;12.90;;;3.20;;
55037;SDS011;40937;53.594;10.034;2023-04-26T11:04:51;4.85;;;2.35;;
55037;SDS011;40937;53.594;10.034;2023-04-26T11:07:29;4.88;;;1.40;;
55037;SDS011;40937;53.594;10.034;2023-04-26T11:10:01;2.67;;;1.20;;
55037;SDS011;40937;53.594;10.034;2023-04-26T11:12:28;3.38;;;1.88;;
55037;SDS011;40937;53.594;10.034;2023-04-26T11:14:55;8.38;;;1.65;;
55037;SDS011;40937;53.594;10.034;2023-04-26T11:17:25;7.10;;;1.70;;
55037;SDS011;40937;53.594;10.034;2023-04-26T11:19:53;4.82;;;2.22;;
55037;SDS011;40937;53.594;10.034;2023-04-26T11:22:21;5.75;;;2.08;;
55037;SDS011;40937;53.594;10.034;2023-04-26T11:24:48;3.75;;;1.92;;
55037;SDS011;40937;53.594;10.034;2023-04-26T11:27:15;5.25;;;1.73;;
55037;SDS011;40937;53.594;10.034;2023-04-26T11:29:42;5.20;;;1.83;;
55037;SDS011;40937;53.594;10.034;2023-04-26T11:32:09;6.10;;;1.92;;
55037;SDS011;40937;53.594;10.034;2023-04-26T11:34:37;6.40;;;2.00;;
55037;SDS011;40937;53.594;10.034;2023-04-26T11:37:06;4.85;;;1.60;;
55037;SDS011;40937;53.594;10.034;2023-04-26T11:39:33;5.22;;;1.50;;
55037;SDS011;40937;53.594;10.034;2023-04-26T11:42:04;2.97;;;1.30;;
55037;SDS011;40937;53.594;10.034;2023-04-26T11:44:31;2.90;;;1.50;;
55037;SDS011;40937;53.594;10.034;2023-04-26T11:46:58;1.90;;;1.23;;
55037;SDS011;40937;53.594;10.034;2023-04-26T11:49:28;5.93;;;1.73;;
55037;SDS011;40937;53.594;10.034;2023-04-26T11:51:56;4.60;;;1.60;;
55037;SDS011;40937;53.594;10.034;2023-04-26T11:54:27;3.40;;;1.67;;
55037;SDS011;40937;53.594;10.034;2023-04-26T11:56:55;4.13;;;1.40;;
55037;SDS011;40937;53.594;10.034;2023-04-26T11:59:22;3.47;;;1.33;;
55037;SDS011;40937;53.594;10.034;2023-04-26T12:01:50;7.38;;;1.92;;
55037;SDS011;40937;53.594;10.034;2023-04-26T12:04:17;2.78;;;1.35;;
55037;SDS011;40937;53.594;10.034;2023-04-26T12:06:45;4.50;;;1.45;;
55037;SDS011;40937;53.594;10.034;2023-04-26T12:09:12;3.67;;;1.40;;
55037;SDS011;40937;53.594;10.034;2023-04-26T12:11:40;9.23;;;1.50;;
55037;SDS011;40937;53.594;10.034;2023-04-26T12:14:16;6.57;;;2.00;;
55037;SDS011;40937;53.594;10.034;2023-04-26T12:16:43;4.47;;;1.80;;
55037;SDS011;40937;53.594;10.034;2023-04-26T12:19:09;5.05;;;1.38;;
55037;SDS011;40937;53.594;10.034;2023-04-26T12:21:41;9.13;;;1.90;;
55037;SDS011;40937;53.594;10.034;2023-04-26T12:24:18;5.32;;;1.50;;
55037;SDS011;40937;53.594;10.034;2023-04-26T12:26:47;3.63;;;1.48;;
55037;SDS011;40937;53.594;10.034;2023-04-26T12:29:14;4.93;;;1.63;;
55037;SDS011;40937;53.594;10.034;2023-04-26T12:31:41;6.05;;;1.63;;
55037;SDS011;40937;53.594;10.034;2023-04-26T12:34:08;1.80;;;1.33;;
55037;SDS011;40937;53.594;10.034;2023-04-26T12:36:35;3.65;;;1.42;;
55037;SDS011;40937;53.594;10.034;2023-04-26T12:39:01;2.22;;;1.83;;
55037;SDS011;40937;53.594;10.034;2023-04-26T12:41:29;3.17;;;1.60;;
55037;SDS011;40937;53.594;10.034;2023-04-26T12:44:01;6.60;;;1.42;;
55037;SDS011;40937;53.594;10.034;2023-04-26T12:46:28;4.57;;;1.52;;
55037;SDS011;40937;53.594;10.034;2023-04-26T12:48:55;3.72;;;1.38;;
55037;SDS011;40937;53.594;10.034;2023-04-26T12:51:22;2.85;;;1.58;;
55037;SDS011;40937;53.594;10.034;2023-04-26T12:53:49;6.40;;;1.55;;
55037;SDS011;40937;53.594;10.034;2023-04-26T12:56:16;5.22;;;1.23;;
55037;SDS011;40937;53.594;10.034;2023-04-26T12:58:43;3.00;;;1.23;;
55037;SDS011;40937;53.594;10.034;2023-04-26T13:01:12;2.90;;;1.23;;
55037;SDS011;40937;53.594;10.034;2023-04-26T13:03:39;2.83;;;1.20;;
55037;SDS011;40937;53.594;10.034;2023-04-26T13:06:06;4.22;;;1.63;;
55037;SDS011;40937;53.594;10.034;2023-04-26T13:08:33;5.05;;;1.73;;
55037;SDS011;40937;53.594;10.034;2023-04-26T13:11:00;4.07;;;1.42;;
55037;SDS011;40937;53.594;10.034;2023-04-26T13:13:27;6.82;;;1.77;;
55037;SDS011;40937;53.594;10.034;2023-04-26T13:15:55;5.72;;;1.33;;
55037;SDS011;40937;53.594;10.034;2023-04-26T13:18:23;3.85;;;1.75;;
55037;SDS011;40937;53.594;10.034;2023-04-26T13:20:50;8.10;;;2.05;;
55037;SDS011;40937;53.594;10.034;2023-04-26T13:23:17;4.20;;;1.90;;
55037;SDS011;40937;53.594;10.034;2023-04-26T13:25:44;2.65;;;1.42;;
55037;SDS011;40937;53.594;10.034;2023-04-26T13:28:11;5.88;;;1.60;;
55037;SDS011;40937;53.594;10.034;2023-04-26T13:30:38;3.83;;;1.60;;
55037;SDS011;40937;53.594;10.034;2023-04-26T13:33:05;2.13;;;1.15;;
55037;SDS011;40937;53.594;10.034;2023-04-26T13:35:33;4.47;;;1.60;;
55037;SDS011;40937;53.594;10.034;2023-04-26T13:38:00;4.45;;;1.55;;
55037;SDS011;40937;53.594;10.034;2023-04-26T13:40:27;5.93;;;1.60;;
55037;SDS011;40937;53.594;10.034;2023-04-26T13:42:54;3.72;;;1.80;;
55037;SDS011;40937;53.594;10.034;2023-04-26T13:45:21;3.55;;;1.70;;
55037;SDS011;40937;53.594;10.034;2023-04-26T13:47:48;3.47;;;1.38;;
55037;SDS011;40937;53.594;10.034;2023-04-26T13:50:15;6.50;;;2.00;;
55037;SDS011;40937;53.594;10.034;2023-04-26T13:52:43;5.35;;;1.77;;
55037;SDS011;40937;53.594;10.034;2023-04-26T13:55:10;4.53;;;1.63;;
55037;SDS011;40937;53.594;10.034;2023-04-26T13:57:37;5.45;;;1.92;;
55037;SDS011;40937;53.594;10.034;2023-04-26T14:00:04;3.33;;;1.63;;
55037;SDS011;40937;53.594;10.034;2023-04-26T14:05:04;4.95;;;1.45;;
55037;SDS011;40937;53.594;10.034;2023-04-26T14:07:32;7.70;;;1.65;;
55037;SDS011;40937;53.594;10.034;2023-04-26T14:10:02;7.50;;;1.33;;
55037;SDS011;40937;53.594;10.034;2023-04-26T14:12:28;5.32;;;1.55;;
55037;SDS011;40937;53.594;10.034;2023-04-26T14:14:55;2.97;;;1.63;;
55037;SDS011;40937;53.594;10.034;2023-04-26T14:17:29;2.95;;;1.02;;
55037;SDS011;40937;53.594;10.034;2023-04-26T14:19:57;6.30;;;1.27;;
55037;SDS011;40937;53.594;10.034;2023-04-26T14:22:25;1.80;;;1.00;;
55037;SDS011;40937;53.594;10.034;2023-04-26T14:24:52;2.47;;;1.35;;
55037;SDS011;40937;53.594;10.034;2023-04-26T14:27:20;1.92;;;1.00;;
55037;SDS011;40937;53.594;10.034;2023-04-26T14:29:47;4.63;;;1.30;;
55037;SDS011;40937;53.594;10.034;2023-04-26T14:32:14;6.28;;;1.83;;
55037;SDS011;40937;53.594;10.034;2023-04-26T14:34:41;2.60;;;1.50;;
55037;SDS011;40937;53.594;10.034;2023-04-26T14:37:08;7.85;;;1.30;;
55037;SDS011;40937;53.594;10.034;2023-04-26T14:39:39;4.72;;;1.48;;
55037;SDS011;40937;53.594;10.034;2023-04-26T14:42:06;2.88;;;1.50;;
55037;SDS011;40937;53.594;10.034;2023-04-26T14:44:39;4.97;;;1.48;;
55037;SDS011;40937;53.594;10.034;2023-04-26T14:47:06;6.13;;;1.60;;
55037;SDS011;40937;53.594;10.034;2023-04-26T14:49:32;3.20;;;1.30;;
55037;SDS011;40937;53.594;10.034;2023-04-26T14:52:00;7.80;;;1.65;;
55037;SDS011;40937;53.594;10.034;2023-04-26T14:54:29;3.85;;;1.25;;
55037;SDS011;40937;53.594;10.034;2023-04-26T14:56:55;4.07;;;1.48;;
55037;SDS011;40937;53.594;10.034;2023-04-26T14:59:22;3.70;;;1.42;;
55037;SDS011;40937;53.594;10.034;2023-04-26T15:01:51;3.95;;;1.73;;
55037;SDS011;40937;53.594;10.034;2023-04-26T15:04:18;4.18;;;1.48;;
55037;SDS011;40937;53.594;10.034;2023-04-26T15:06:45;3.33;;;1.80;;
55037;SDS011;40937;53.594;10.034;2023-04-26T15:09:12;7.63;;;1.60;;
55037;SDS011;40937;53.594;10.034;2023-04-26T15:11:39;5.75;;;1.67;;
55037;SDS011;40937;53.594;10.034;2023-04-26T15:14:06;5.40;;;1.77;;
55037;SDS011;40937;53.594;10.034;2023-04-26T15:16:33;3.47;;;1.92;;
55037;SDS011;40937;53.594;10.034;2023-04-26T15:19:01;5.53;;;1.80;;
55037;SDS011;40937;53.594;10.034;2023-04-26T15:21:28;6.18;;;1.73;;
55037;SDS011;40937;53.594;10.034;2023-04-26T15:23:55;3.20;;;1.33;;
55037;SDS011;40937;53.594;10.034;2023-04-26T15:26:22;9.02;;;2.08;;
55037;SDS011;40937;53.594;10.034;2023-04-26T15:28:50;4.40;;;1.67;;
55037;SDS011;40937;53.594;10.034;2023-04-26T15:31:17;5.57;;;1.48;;
55037;SDS011;40937;53.594;10.034;2023-04-26T15:33:44;2.85;;;1.65;;
55037;SDS011;40937;53.594;10.034;2023-04-26T15:36:12;10.10;;;2.75;;
55037;SDS011;40937;53.594;10.034;2023-04-26T15:38:40;7.78;;;2.00;;
55037;SDS011;40937;53.594;10.034;2023-04-26T15:41:09;9.60;;;2.35;;
55037;SDS011;40937;53.594;10.034;2023-04-26T15:43:36;3.13;;;1.52;;
55037;SDS011;40937;53.594;10.034;2023-04-26T15:46:03;3.65;;;1.48;;
55037;SDS011;40937;53.594;10.034;2023-04-26T15:48:30;8.20;;;2.05;;
55037;SDS011;40937;53.594;10.034;2023-04-26T15:50:57;4.82;;;1.55;;
55037;SDS011;40937;53.594;10.034;2023-04-26T15:53:25;5.60;;;1.95;;
55037;SDS011;40937;53.594;10.034;2023-04-26T15:55:52;4.85;;;2.05;;
55037;SDS011;40937;53.594;10.034;2023-04-26T15:58:19;5.43;;;2.13;;
55037;SDS011;40937;53.594;10.034;2023-04-26T16:00:47;4.20;;;1.65;;
55037;SDS011;40937;53.594;10.034;2023-04-26T16:03:14;2.97;;;1.58;;
55037;SDS011;40937;53.594;10.034;2023-04-26T16:05:41;3.63;;;2.00;;
55037;SDS011;40937;53.594;10.034;2023-04-26T16:08:11;7.10;;;1.67;;
55037;SDS011;40937;53.594;10.034;2023-04-26T16:10:40;11.48;;;1.98;;
55037;SDS011;40937;53.594;10.034;2023-04-26T16:13:07;5.68;;;2.33;;
55037;SDS011;40937;53.594;10.034;2023-04-26T16:15:34;7.63;;;2.20;;
55037;SDS011;40937;53.594;10.034;2023-04-26T16:18:01;7.30;;;2.17;;
55037;SDS011;40937;53.594;10.034;2023-04-26T16:20:27;8.63;;;2.08;;
55037;SDS011;40937;53.594;10.034;2023-04-26T16:22:55;4.75;;;2.10;;
55037;SDS011;40937;53.594;10.034;2023-04-26T16:25:22;4.43;;;1.67;;
55037;SDS011;40937;53.594;10.034;2023-04-26T16:27:51;4.05;;;1.58;;
55037;SDS011;40937;53.594;10.034;2023-04-26T16:30:17;7.30;;;3.58;;
55037;SDS011;40937;53.594;10.034;2023-04-26T16:32:44;8.30;;;2.50;;
55037;SDS011;40937;53.594;10.034;2023-04-26T16:35:11;6.32;;;2.42;;
55037;SDS011;40937;53.594;10.034;2023-04-26T16:37:38;7.43;;;2.20;;
55037;SDS011;40937;53.594;10.034;2023-04-26T16:40:06;7.72;;;2.13;;
55037;SDS011;40937;53.594;10.034;2023-04-26T16:42:34;9.70;;;2.40;;
55037;SDS011;40937;53.594;10.034;2023-04-26T16:45:03;6.68;;;2.65;;
55037;SDS011;40937;53.594;10.034;2023-04-26T16:47:30;8.45;;;2.28;;
55037;SDS011;40937;53.594;10.034;2023-04-26T16:49:57;7.53;;;2.58;;
55037;SDS011;40937;53.594;10.034;2023-04-26T16:52:24;7.22;;;2.10;;
55037;SDS011;40937;53.594;10.034;2023-04-26T16:54:51;6.82;;;2.13;;
55037;SDS011;40937;53.594;10.034;2023-04-26T16:57:18;5.75;;;2.13;;
55037;SDS011;40937;53.594;10.034;2023-04-26T16:59:45;6.88;;;2.28;;
55037;SDS011;40937;53.594;10.034;2023-04-26T17:02:13;10.65;;;2.80;;
55037;SDS011;40937;53.594;10.034;2023-04-26T17:07:39;4.18;;;1.50;;
55037;SDS011;40937;53.594;10.034;2023-04-26T17:10:17;4.18;;;1.80;;
55037;SDS011;40937;53.594;10.034;2023-04-26T17:12:45;5.78;;;1.90;;
55037;SDS011;40937;53.594;10.034;2023-04-26T18:52:14;6.60;;;2.67;;
55037;SDS011;40937;53.594;10.034;2023-04-26T18:56:04;10.98;;;2.78;;
55037;SDS011;40937;53.594;10.034;2023-04-26T19:02:18;5.93;;;2.03;;
55037;SDS011;40937;53.594;10.034;2023-04-26T19:08:36;7.15;;;2.45;;
55037;SDS011;40937;53.594;10.034;2023-04-26T19:11:24;7.50;;;2.25;;
55037;SDS011;40937;53.594;10.034;2023-04-26T19:13:56;4.22;;;2.35;;
55037;SDS011;40937;53.594;10.034;2023-04-26T19:16:40;8.27;;;1.95;;
55037;SDS011;40937;53.594;10.034;2023-04-26T19:22:49;4.65;;;2.28;;
55037;SDS011;40937;53.594;10.034;2023-04-26T19:25:19;12.65;;;3.58;;
55037;SDS011;40937;53.594;10.034;2023-04-26T19:27:47;8.07;;;2.60;;
55037;SDS011;40937;53.594;10.034;2023-04-26T19:30:14;10.88;;;3.22;;
55037;SDS011;40937;53.594;10.034;2023-04-26T19:32:41;15.82;;;3.28;;
55037;SDS011;40937;53.594;10.034;2023-04-26T19:35:08;6.95;;;2.20;;
55037;SDS011;40937;53.594;10.034;2023-04-26T19:37:35;14.52;;;3.05;;
55037;SDS011;40937;53.594;10.034;2023-04-26T19:40:02;9.48;;;2.78;;
55037;SDS011;40937;53.594;10.034;2023-04-26T19:42:31;9.05;;;2.60;;
55037;SDS011;40937;53.594;10.034;2023-04-26T19:44:58;5.07;;;2.58;;
55037;SDS011;40937;53.594;10.034;2023-04-26T19:47:25;8.70;;;3.03;;
55037;SDS011;40937;53.594;10.034;2023-04-26T19:49:52;10.57;;;3.67;;
55037;SDS011;40937;53.594;10.034;2023-04-26T19:52:21;12.25;;;3.30;;
55037;SDS011;40937;53.594;10.034;2023-04-26T19:54:48;12.70;;;3.80;;
55037;SDS011;40937;53.594;10.034;2023-04-26T19:57:18;13.65;;;3.53;;
55037;SDS011;40937;53.594;10.034;2023-04-26T19:59:46;13.45;;;3.35;;
55037;SDS011;40937;53.594;10.034;2023-04-26T20:02:13;8.00;;;3.22;;
55037;SDS011;40937;53.594;10.034;2023-04-26T20:04:40;7.38;;;2.47;;
55037;SDS011;40937;53.594;10.034;2023-04-26T20:07:07;10.50;;;3.45;;
55037;SDS011;40937;53.594;10.034;2023-04-26T20:09:34;8.70;;;3.13;;
55037;SDS011;40937;53.594;10.034;2023-04-26T20:12:01;7.82;;;3.08;;
55037;SDS011;40937;53.594;10.034;2023-04-26T20:14:30;11.38;;;2.80;;
55037;SDS011;40937;53.594;10.034;2023-04-26T20:16:59;12.40;;;2.67;;
55037;SDS011;40937;53.594;10.034;2023-04-26T20:19:26;11.18;;;3.45;;
55037;SDS011;40937;53.594;10.034;2023-04-26T20:21:53;12.48;;;4.32;;
55037;SDS011;40937;53.594;10.034;2023-04-26T20:24:21;10.50;;;4.75;;
55037;SDS011;40937;53.594;10.034;2023-04-26T20:26:52;7.50;;;3.38;;
55037;SDS011;40937;53.594;10.034;2023-04-26T20:29:19;11.43;;;3.42;;
55037;SDS011;40937;53.594;10.034;2023-04-26T20:31:46;8.57;;;2.72;;
55037;SDS011;40937;53.594;10.034;2023-04-26T20:34:14;7.68;;;2.67;;
55037;SDS011;40937;53.594;10.034;2023-04-26T20:36:41;14.65;;;3.15;;
55037;SDS011;40937;53.594;10.034;2023-04-26T20:39:08;13.95;;;6.00;;
55037;SDS011;40937;53.594;10.034;2023-04-26T20:41:35;10.82;;;4.07;;
55037;SDS011;40937;53.594;10.034;2023-04-26T20:44:02;7.68;;;3.50;;
55037;SDS011;40937;53.594;10.034;2023-04-26T20:46:29;8.35;;;3.22;;
55037;SDS011;40937;53.594;10.034;2023-04-26T20:48:56;16.38;;;3.63;;
55037;SDS011;40937;53.594;10.034;2023-04-26T20:51:25;9.15;;;2.50;;
55037;SDS011;40937;53.594;10.034;2023-04-26T20:53:52;12.10;;;3.05;;
55037;SDS011;40937;53.594;10.034;2023-04-26T20:56:19;8.63;;;2.92;;
55037;SDS011;40937;53.594;10.034;2023-04-26T20:58:46;5.45;;;2.50;;
55037;SDS011;40937;53.594;10.034;2023-04-26T21:01:12;6.20;;;2.28;;
55037;SDS011;40937;53.594;10.034;2023-04-26T21:03:39;5.13;;;2.42;;
55037;SDS011;40937;53.594;10.034;2023-04-26T21:06:06;12.48;;;3.85;;
55037;SDS011;40937;53.594;10.034;2023-04-26T21:08:34;9.27;;;3.42;;
55037;SDS011;40937;53.594;10.034;2023-04-26T21:11:02;5.97;;;2.35;;
55037;SDS011;40937;53.594;10.034;2023-04-26T21:13:30;7.50;;;2.97;;
55037;SDS011;40937;53.594;10.034;2023-04-26T21:15:56;7.88;;;2.55;;
55037;SDS011;40937;53.594;10.034;2023-04-26T21:18:23;6.85;;;2.22;;
55037;SDS011;40937;53.594;10.034;2023-04-26T21:20:50;9.15;;;2.78;;
55037;SDS011;40937;53.594;10.034;2023-04-26T21:23:17;9.35;;;3.60;;
55037;SDS011;40937;53.594;10.034;2023-04-26T21:25:46;5.82;;;2.15;;
55037;SDS011;40937;53.594;10.034;2023-04-26T21:28:13;7.28;;;2.60;;
55037;SDS011;40937;53.594;10.034;2023-04-26T21:30:40;6.82;;;2.70;;
55037;SDS011;40937;53.594;10.034;2023-04-26T21:33:07;15.40;;;3.13;;
55037;SDS011;40937;53.594;10.034;2023-04-26T21:35:34;7.68;;;2.78;;
55037;SDS011;40937;53.594;10.034;2023-04-26T21:38:01;8.45;;;2.40;;
55037;SDS011;40937;53.594;10.034;2023-04-26T21:40:28;7.07;;;2.63;;
55037;SDS011;40937;53.594;10.034;2023-04-26T21:42:58;5.28;;;2.72;;
55037;SDS011;40937;53.594;10.034;2023-04-26T21:45:25;6.30;;;3.22;;
55037;SDS011;40937;53.594;10.034;2023-04-26T21:47:55;5.13;;;2.47;;
55037;SDS011;40937;53.594;10.034;2023-04-26T21:50:22;8.85;;;2.78;;
55037;SDS011;40937;53.594;10.034;2023-04-26T21:52:48;4.68;;;2.47;;
55037;SDS011;40937;53.594;10.034;2023-04-26T21:55:15;6.72;;;3.10;;
55037;SDS011;40937;53.594;10.034;2023-04-26T21:57:42;6.55;;;2.47;;
55037;SDS011;40937;53.594;10.034;2023-04-26T22:00:11;12.10;;;3.13;;
55037;SDS011;40937;53.594;10.034;2023-04-26T22:02:41;7.72;;;2.67;;
55037;SDS011;40937;53.594;10.034;2023-04-26T22:05:08;8.93;;;2.45;;
55037;SDS011;40937;53.594;10.034;2023-04-26T22:07:35;7.28;;;2.80;;
55037;SDS011;40937;53.594;10.034;2023-04-26T22:10:02;8.38;;;3.60;;
55037;SDS011;40937;53.594;10.034;2023-04-26T22:12:29;13.30;;;3.33;;
55037;SDS011;40937;53.594;10.034;2023-04-26T22:14:56;9.27;;;2.90;;
55037;SDS011;40937;53.594;10.034;2023-04-26T22:17:24;6.50;;;2.72;;
55037;SDS011;40937;53.594;10.034;2023-04-26T22:19:51;8.05;;;2.83;;
55037;SDS011;40937;53.594;10.034;2023-04-26T22:22:20;9.27;;;2.65;;
55037;SDS011;40937;53.594;10.034;2023-04-26T22:24:47;10.07;;;2.97;;
55037;SDS011;40937;53.594;10.034;2023-04-26T22:27:13;7.43;;;3.10;;
55037;SDS011;40937;53.594;10.034;2023-04-26T22:29:41;11.50;;;3.20;;
55037;SDS011;40937;53.594;10.034;2023-04-26T22:32:08;8.10;;;2.80;;
55037;SDS011;40937;53.594;10.034;2023-04-26T22:34:36;7.18;;;3.35;;
55037;SDS011;40937;53.594;10.034;2023-04-26T22:37:04;13.48;;;3.22;;
55037;SDS011;40937;53.594;10.034;2023-04-26T22:39:30;5.68;;;2.65;;
55037;SDS011;40937;53.594;10.034;2023-04-26T22:41:57;6.20;;;2.92;;
55037;SDS011;40937;53.594;10.034;2023-04-26T22:44:24;7.70;;;3.33;;
55037;SDS011;40937;53.594;10.034;2023-04-26T22:46:51;4.22;;;2.60;;
55037;SDS011;40937;53.594;10.034;2023-04-26T22:49:19;7.45;;;2.90;;
55037;SDS011;40937;53.594;10.034;2023-04-26T22:51:48;7.25;;;3.22;;
55037;SDS011;40937;53.594;10.034;2023-04-26T22:54:15;5.75;;;2.72;;
55037;SDS011;40937;53.594;10.034;2023-04-26T22:56:41;6.07;;;3.15;;
55037;SDS011;40937;53.594;10.034;2023-04-26T22:59:08;10.57;;;3.03;;
55037;SDS011;40937;53.594;10.034;2023-04-26T23:01:35;9.85;;;2.65;;
55037;SDS011;40937;53.594;10.034;2023-04-26T23:04:02;5.93;;;3.20;;
55037;SDS011;40937;53.594;10.034;2023-04-26T23:06:30;9.65;;;3.45;;
55037;SDS011;40937;53.594;10.034;2023-04-26T23:08:59;6.57;;;2.70;;
55037;SDS011;40937;53.594;10.034;2023-04-26T23:11:25;5.47;;;2.78;;
55037;SDS011;40937;53.594;10.034;2023-04-26T23:13:52;7.47;;;2.92;;
55037;SDS011;40937;53.594;10.034;2023-04-26T23:16:19;5.78;;;2.50;;
55037;SDS011;40937;53.594;10.034;2023-04-26T23:18:46;8.45;;;3.10;;
55037;SDS011;40937;53.594;10.034;2023-04-26T23:21:13;13.25;;;3.13;;
55037;SDS011;40937;53.594;10.034;2023-04-26T23:23:40;5.43;;;3.20;;
55037;SDS011;40937;53.594;10.034;2023-04-26T23:26:08;3.80;;;2.50;;
55037;SDS011;40937;53.594;10.034;2023-04-26T23:28:35;7.60;;;3.05;;
55037;SDS011;40937;53.594;10.034;2023-04-26T23:31:02;7.38;;;2.50;;
55037;SDS011;40937;53.594;10.034;2023-04-26T23:33:29;7.43;;;3.22;;
55037;SDS011;40937;53.594;10.034;2023-04-26T23:35:56;6.45;;;3.10;;
55037;SDS011;40937;53.594;10.034;2023-04-26T23:38:23;10.75;;;3.20;;
55037;SDS011;40937;53.594;10.034;2023-04-26T23:40:50;5.10;;;3.03;;
55037;SDS011;40937;53.594;10.034;2023-04-26T23:43:18;6.47;;;2.65;;
55037;SDS011;40937;53.594;10.034;2023-04-26T23:45:45;7.05;;;2.58;;
55037;SDS011;40937;53.594;10.034;2023-04-26T23:48:12;7.38;;;2.92;;
55037;SDS011;40937;53.594;10.034;2023-04-26T23:50:39;5.88;;;2.97;;
55037;SDS011;40937;53.594;10.034;2023-04-26T23:53:06;4.93;;;2.53;;
55037;SDS011;40937;53.594;10.034;2023-04-26T23:55:33;7.35;;;2.92;;
55037;SDS011;40937;53.594;10.034;2023-04-26T23:58:00;6.28;;;3.20;;
